sensor_id;sensor_type;location;lat;lon;timestamp;pressure;altitude;pressure_sealevel;temperature;humidity
14067;BME280;7108;42.684;23.350;2023-08-12T00:00:49;95870.84;;;19.06;100.00
14067;BME280;7108;42.684;23.350;2023-08-12T00:03:15;95867.34;;;19.09;100.00
14067;BME280;7108;42.684;23.350;2023-08-12T00:05:40;95840.91;;;18.64;100.00
14067;BME280;7108;42.684;23.350;2023-08-12T00:08:08;95881.78;;;19.13;100.00
14067;BME280;7108;42.684;23.350;2023-08-12T00:10:33;95884.09;;;19.21;100.00
14067;BME280;7108;42.684;23.350;2023-08-12T00:12:59;95874.38;;;19.10;100.00
14067;BME280;7108;42.684;23.350;2023-08-12T00:15:25;95861.50;;;19.00;100.00
14067;BME280;7108;42.684;23.350;2023-08-12T00:17:50;95886.47;;;19.06;100.00
14067;BME280;7108;42.684;23.350;2023-08-12T00:20:16;95875.91;;;19.11;100.00
14067;BME280;7108;42.684;23.350;2023-08-12T00:22:44;95873.19;;;19.01;100.00
14067;BME280;7108;42.684;23.350;2023-08-12T00:25:10;95864.66;;;18.92;100.00
14067;BME280;7108;42.684;23.350;2023-08-12T00:27:35;95863.47;;;18.93;100.00
14067;BME280;7108;42.684;23.350;2023-08-12T00:30:03;95866.97;;;19.00;100.00
14067;BME280;7108;42.684;23.350;2023-08-12T00:32:28;95857.63;;;18.94;100.00
14067;BME280;7108;42.684;23.350;2023-08-12T00:34:54;95876.00;;;18.83;100.00
14067;BME280;7108;42.684;23.350;2023-08-12T00:37:19;95865.06;;;18.80;100.00
14067;BME280;7108;42.684;23.350;2023-08-12T00:39:44;95859.66;;;18.66;100.00
14067;BME280;7108;42.684;23.350;2023-08-12T00:42:10;95870.88;;;18.89;100.00
14067;BME280;7108;42.684;23.350;2023-08-12T00:44:35;95862.34;;;18.73;100.00
14067;BME280;7108;42.684;23.350;2023-08-12T00:47:01;95851.47;;;18.66;100.00
14067;BME280;7108;42.684;23.350;2023-08-12T00:49:27;95868.97;;;18.82;100.00
14067;BME280;7108;42.684;23.350;2023-08-12T00:51:53;95863.91;;;18.81;100.00
14067;BME280;7108;42.684;23.350;2023-08-12T00:54:21;95855.72;;;18.74;100.00
14067;BME280;7108;42.684;23.350;2023-08-12T00:56:49;95876.41;;;18.75;100.00
14067;BME280;7108;42.684;23.350;2023-08-12T00:59:16;95870.53;;;18.87;100.00
14067;BME280;7108;42.684;23.350;2023-08-12T01:01:43;95856.47;;;18.78;100.00
14067;BME280;7108;42.684;23.350;2023-08-12T01:04:08;95857.25;;;18.85;100.00
14067;BME280;7108;42.684;23.350;2023-08-12T01:06:34;95840.09;;;18.85;100.00
14067;BME280;7108;42.684;23.350;2023-08-12T01:09:00;95853.72;;;18.88;100.00
14067;BME280;7108;42.684;23.350;2023-08-12T01:11:36;95872.41;;;19.04;100.00
14067;BME280;7108;42.684;23.350;2023-08-12T01:16:51;95852.13;;;19.01;100.00
14067;BME280;7108;42.684;23.350;2023-08-12T01:19:40;95863.06;;;19.11;100.00
14067;BME280;7108;42.684;23.350;2023-08-12T01:22:10;95859.16;;;18.99;100.00
14067;BME280;7108;42.684;23.350;2023-08-12T01:24:38;95861.88;;;18.99;100.00
14067;BME280;7108;42.684;23.350;2023-08-12T01:27:05;95843.56;;;18.92;100.00
14067;BME280;7108;42.684;23.350;2023-08-12T01:29:32;95837.72;;;18.90;100.00
14067;BME280;7108;42.684;23.350;2023-08-12T01:32:28;95857.63;;;18.94;100.00
14067;BME280;7108;42.684;23.350;2023-08-12T01:35:01;95866.94;;;19.04;100.00
14067;BME280;7108;42.684;23.350;2023-08-12T01:37:29;95859.16;;;18.99;100.00
14067;BME280;7108;42.684;23.350;2023-08-12T01:39:56;95849.84;;;18.89;100.00
14067;BME280;7108;42.684;23.350;2023-08-12T01:42:24;95857.63;;;18.84;100.00
14067;BME280;7108;42.684;23.350;2023-08-12T01:44:50;95841.72;;;18.58;100.00
14067;BME280;7108;42.684;23.350;2023-08-12T01:47:15;95854.56;;;18.64;100.00
14067;BME280;7108;42.684;23.350;2023-08-12T01:49:41;95847.16;;;18.58;100.00
14067;BME280;7108;42.684;23.350;2023-08-12T01:52:06;95860.81;;;18.54;100.00
14067;BME280;7108;42.684;23.350;2023-08-12T01:54:32;95848.38;;;18.50;100.00
14067;BME280;7108;42.684;23.350;2023-08-12T01:57:03;95862.75;;;18.68;100.00
14067;BME280;7108;42.684;23.350;2023-08-12T01:59:34;95849.91;;;18.65;100.00
14067;BME280;7108;42.684;23.350;2023-08-12T02:01:59;95858.84;;;18.72;100.00
14067;BME280;7108;42.684;23.350;2023-08-12T02:04:26;95855.72;;;18.70;100.00
14067;BME280;7108;42.684;23.350;2023-08-12T02:06:51;95842.47;;;18.69;100.00
14067;BME280;7108;42.684;23.350;2023-08-12T02:09:17;95846.38;;;18.64;100.00
14067;BME280;7108;42.684;23.350;2023-08-12T02:11:42;95861.56;;;18.72;100.00
14067;BME280;7108;42.684;23.350;2023-08-12T02:14:08;95856.53;;;18.67;100.00
14067;BME280;7108;42.684;23.350;2023-08-12T02:16:33;95849.91;;;18.61;100.00
14067;BME280;7108;42.684;23.350;2023-08-12T02:18:58;95841.31;;;18.59;100.00
14067;BME280;7108;42.684;23.350;2023-08-12T02:21:24;95825.72;;;18.49;100.00
14067;BME280;7108;42.684;23.350;2023-08-12T02:23:49;95825.78;;;18.42;100.00
14067;BME280;7108;42.684;23.350;2023-08-12T02:26:15;95853.03;;;18.56;100.00
14067;BME280;7108;42.684;23.350;2023-08-12T02:28:41;95848.38;;;18.50;100.00
14067;BME280;7108;42.684;23.350;2023-08-12T02:31:06;95861.63;;;18.55;100.00
14067;BME280;7108;42.684;23.350;2023-08-12T02:33:31;95861.22;;;18.53;100.00
14067;BME280;7108;42.684;23.350;2023-08-12T02:35:57;95846.03;;;18.48;100.00
14067;BME280;7108;42.684;23.350;2023-08-12T02:38:22;95865.13;;;18.55;100.00
14067;BME280;7108;42.684;23.350;2023-08-12T02:40:49;95865.16;;;18.48;100.00
14067;BME280;7108;42.684;23.350;2023-08-12T02:43:14;95863.19;;;18.42;100.00
14067;BME280;7108;42.684;23.350;2023-08-12T02:45:40;95862.41;;;18.35;100.00
14067;BME280;7108;42.684;23.350;2023-08-12T02:48:06;95863.22;;;18.35;100.00
14067;BME280;7108;42.684;23.350;2023-08-12T02:50:31;95850.31;;;18.32;100.00
14067;BME280;7108;42.684;23.350;2023-08-12T02:52:57;95858.13;;;18.34;100.00
14067;BME280;7108;42.684;23.350;2023-08-12T02:55:22;95862.44;;;18.28;100.00
14067;BME280;7108;42.684;23.350;2023-08-12T02:57:48;95860.88;;;18.27;100.00
14067;BME280;7108;42.684;23.350;2023-08-12T03:00:13;95841.34;;;18.07;100.00
14067;BME280;7108;42.684;23.350;2023-08-12T03:02:42;95842.91;;;18.05;100.00
14067;BME280;7108;42.684;23.350;2023-08-12T03:05:08;95867.47;;;18.22;100.00
14067;BME280;7108;42.684;23.350;2023-08-12T03:07:33;95878.00;;;18.31;100.00
14067;BME280;7108;42.684;23.350;2023-08-12T03:09:59;95880.34;;;18.25;100.00
14067;BME280;7108;42.684;23.350;2023-08-12T03:12:25;95878.78;;;18.21;100.00
14067;BME280;7108;42.684;23.350;2023-08-12T03:14:50;95876.41;;;18.12;100.00
14067;BME280;7108;42.684;23.350;2023-08-12T03:17:15;95860.06;;;17.98;100.00
14067;BME280;7108;42.684;23.350;2023-08-12T03:19:41;95865.53;;;18.02;100.00
14067;BME280;7108;42.684;23.350;2023-08-12T03:22:07;95874.84;;;18.08;100.00
14067;BME280;7108;42.684;23.350;2023-08-12T03:24:33;95886.56;;;18.12;100.00
14067;BME280;7108;42.684;23.350;2023-08-12T03:26:58;95895.50;;;18.09;100.00
14067;BME280;7108;42.684;23.350;2023-08-12T03:29:24;95876.00;;;17.89;100.00
14067;BME280;7108;42.684;23.350;2023-08-12T03:31:49;95895.88;;;18.00;100.00
14067;BME280;7108;42.684;23.350;2023-08-12T03:34:15;95891.97;;;17.94;100.00
14067;BME280;7108;42.684;23.350;2023-08-12T03:36:40;95881.47;;;17.93;100.00
14067;BME280;7108;42.684;23.350;2023-08-12T03:39:06;95897.81;;;17.89;100.00
14067;BME280;7108;42.684;23.350;2023-08-12T03:41:31;95884.19;;;17.79;100.00
14067;BME280;7108;42.684;23.350;2023-08-12T03:43:57;95893.94;;;17.83;100.00
14067;BME280;7108;42.684;23.350;2023-08-12T03:46:22;95891.16;;;17.73;100.00
14067;BME280;7108;42.684;23.350;2023-08-12T03:48:48;95867.41;;;17.67;100.00
14067;BME280;7108;42.684;23.350;2023-08-12T03:51:13;95899.38;;;17.87;100.00
14067;BME280;7108;42.684;23.350;2023-08-12T03:53:39;95871.31;;;17.69;100.00
14067;BME280;7108;42.684;23.350;2023-08-12T03:56:04;95897.44;;;17.84;100.00
14067;BME280;7108;42.684;23.350;2023-08-12T03:58:30;95884.94;;;17.73;100.00
14067;BME280;7108;42.684;23.350;2023-08-12T04:00:55;95893.91;;;17.76;100.00
14067;BME280;7108;42.684;23.350;2023-08-12T04:03:20;95907.16;;;17.78;100.00
14067;BME280;7108;42.684;23.350;2023-08-12T04:05:52;95891.16;;;17.73;100.00
14067;BME280;7108;42.684;23.350;2023-08-12T04:08:19;95905.59;;;17.84;100.00
14067;BME280;7108;42.684;23.350;2023-08-12T04:10:47;95902.09;;;17.87;100.00
14067;BME280;7108;42.684;23.350;2023-08-12T04:13:13;95886.13;;;17.72;100.00
14067;BME280;7108;42.684;23.350;2023-08-12T04:15:39;95870.91;;;17.67;100.00
14067;BME280;7108;42.684;23.350;2023-08-12T04:18:05;95897.41;;;17.77;100.00
14067;BME280;7108;42.684;23.350;2023-08-12T04:20:30;95917.69;;;17.90;100.00
14067;BME280;7108;42.684;23.350;2023-08-12T04:22:56;95900.94;;;17.77;100.00
14067;BME280;7108;42.684;23.350;2023-08-12T04:25:22;95877.13;;;17.61;100.00
14067;BME280;7108;42.684;23.350;2023-08-12T04:27:47;95898.19;;;17.74;100.00
14067;BME280;7108;42.684;23.350;2023-08-12T04:30:15;95891.56;;;17.82;100.00
14067;BME280;7108;42.684;23.350;2023-08-12T04:32:41;95879.50;;;17.69;100.00
14067;BME280;7108;42.684;23.350;2023-08-12T04:35:06;95856.09;;;17.61;100.00
14067;BME280;7108;42.684;23.350;2023-08-12T04:37:32;95908.75;;;18.00;100.00
14067;BME280;7108;42.684;23.350;2023-08-12T04:39:58;95907.59;;;18.01;100.00
14067;BME280;7108;42.684;23.350;2023-08-12T04:42:23;95911.47;;;18.00;100.00
14067;BME280;7108;42.684;23.350;2023-08-12T04:44:49;95915.75;;;18.08;100.00
14067;BME280;7108;42.684;23.350;2023-08-12T04:47:15;95902.88;;;17.94;100.00
14067;BME280;7108;42.684;23.350;2023-08-12T04:49:40;95915.34;;;17.95;100.00
14067;BME280;7108;42.684;23.350;2023-08-12T04:52:06;95909.91;;;18.02;100.00
14067;BME280;7108;42.684;23.350;2023-08-12T04:54:32;95906.41;;;17.98;100.00
14067;BME280;7108;42.684;23.350;2023-08-12T04:56:58;95886.13;;;17.82;100.00
14067;BME280;7108;42.684;23.350;2023-08-12T04:59:24;95902.91;;;18.01;100.00
14067;BME280;7108;42.684;23.350;2023-08-12T05:01:50;95886.94;;;18.00;100.00
14067;BME280;7108;42.684;23.350;2023-08-12T05:04:15;95907.97;;;18.10;100.00
14067;BME280;7108;42.684;23.350;2023-08-12T05:06:41;95916.19;;;18.17;100.00
14067;BME280;7108;42.684;23.350;2023-08-12T05:09:06;95919.28;;;18.15;100.00
14067;BME280;7108;42.684;23.350;2023-08-12T05:11:31;95912.66;;;18.13;100.00
14067;BME280;7108;42.684;23.350;2023-08-12T05:13:57;95906.41;;;18.12;100.00
14067;BME280;7108;42.684;23.350;2023-08-12T05:16:22;95911.91;;;18.30;100.00
14067;BME280;7108;42.684;23.350;2023-08-12T05:18:48;95911.53;;;18.35;100.00
14067;BME280;7108;42.684;23.350;2023-08-12T05:21:13;95907.22;;;18.34;100.00
14067;BME280;7108;42.684;23.350;2023-08-12T05:23:38;95913.84;;;18.36;100.00
14067;BME280;7108;42.684;23.350;2023-08-12T05:26:04;95920.50;;;18.35;100.00
14067;BME280;7108;42.684;23.350;2023-08-12T05:28:29;95910.75;;;18.34;100.00
14067;BME280;7108;42.684;23.350;2023-08-12T05:30:55;95893.56;;;18.13;100.00
14067;BME280;7108;42.684;23.350;2023-08-12T05:33:21;95919.31;;;18.22;100.00
14067;BME280;7108;42.684;23.350;2023-08-12T05:35:50;95911.84;;;17.95;100.00
14067;BME280;7108;42.684;23.350;2023-08-12T05:38:16;95908.38;;;18.05;100.00
14067;BME280;7108;42.684;23.350;2023-08-12T05:40:42;95920.88;;;18.27;100.00
14067;BME280;7108;42.684;23.350;2023-08-12T05:43:07;95925.16;;;18.35;100.00
14067;BME280;7108;42.684;23.350;2023-08-12T05:45:33;95924.78;;;18.46;100.00
14067;BME280;7108;42.684;23.350;2023-08-12T05:47:59;95918.13;;;18.54;100.00
14067;BME280;7108;42.684;23.350;2023-08-12T05:50:24;95905.66;;;18.57;100.00
14067;BME280;7108;42.684;23.350;2023-08-12T05:52:50;95922.84;;;18.57;100.00
14067;BME280;7108;42.684;23.350;2023-08-12T05:55:15;95897.09;;;18.48;100.00
14067;BME280;7108;42.684;23.350;2023-08-12T05:57:41;95914.63;;;18.50;100.00
14067;BME280;7108;42.684;23.350;2023-08-12T06:00:07;95909.97;;;18.61;100.00
14067;BME280;7108;42.684;23.350;2023-08-12T06:02:33;95909.94;;;18.75;100.00
14067;BME280;7108;42.684;23.350;2023-08-12T06:04:58;95900.97;;;18.64;100.00
14067;BME280;7108;42.684;23.350;2023-08-12T06:07:24;95891.97;;;18.78;100.00
14067;BME280;7108;42.684;23.350;2023-08-12T06:09:49;95906.00;;;18.94;100.00
14067;BME280;7108;42.684;23.350;2023-08-12T06:12:16;95865.47;;;18.78;100.00
14067;BME280;7108;42.684;23.350;2023-08-12T06:14:42;95905.22;;;18.93;100.00
14067;BME280;7108;42.684;23.350;2023-08-12T06:17:07;95890.75;;;19.00;100.00
14067;BME280;7108;42.684;23.350;2023-08-12T06:19:33;95893.09;;;19.01;100.00
14067;BME280;7108;42.684;23.350;2023-08-12T06:21:59;95872.50;;;18.76;100.00
14067;BME280;7108;42.684;23.350;2023-08-12T06:24:24;95884.53;;;18.85;100.00
14067;BME280;7108;42.684;23.350;2023-08-12T06:26:50;95896.22;;;18.93;100.00
14067;BME280;7108;42.684;23.350;2023-08-12T06:29:15;95881.03;;;18.95;100.00
14067;BME280;7108;42.684;23.350;2023-08-12T06:31:41;95904.03;;;19.15;100.00
14067;BME280;7108;42.684;23.350;2023-08-12T06:34:06;95868.91;;;19.10;100.00
14067;BME280;7108;42.684;23.350;2023-08-12T06:36:32;95890.72;;;19.20;100.00
14067;BME280;7108;42.684;23.350;2023-08-12T06:38:57;95879.03;;;19.20;100.00
14067;BME280;7108;42.684;23.350;2023-08-12T06:41:23;95879.38;;;19.29;100.00
14067;BME280;7108;42.684;23.350;2023-08-12T06:43:48;95882.44;;;19.41;100.00
14067;BME280;7108;42.684;23.350;2023-08-12T06:46:14;95875.78;;;19.46;100.00
14067;BME280;7108;42.684;23.350;2023-08-12T06:48:39;95882.44;;;19.45;100.00
14067;BME280;7108;42.684;23.350;2023-08-12T06:51:05;95863.28;;;19.48;100.00
14067;BME280;7108;42.684;23.350;2023-08-12T06:53:39;95883.91;;;19.60;100.00
14067;BME280;7108;42.684;23.350;2023-08-12T06:56:05;95882.31;;;19.66;100.00
14067;BME280;7108;42.684;23.350;2023-08-12T06:58:30;95867.41;;;19.73;100.00
14067;BME280;7108;42.684;23.350;2023-08-12T07:00:56;95844.03;;;19.66;100.00
14067;BME280;7108;42.684;23.350;2023-08-12T07:03:22;95879.16;;;19.74;100.00
14067;BME280;7108;42.684;23.350;2023-08-12T07:05:48;95867.72;;;19.86;100.00
14067;BME280;7108;42.684;23.350;2023-08-12T07:08:13;95854.44;;;19.88;100.00
14067;BME280;7108;42.684;23.350;2023-08-12T07:10:42;95815.13;;;19.68;100.00
14067;BME280;7108;42.684;23.350;2023-08-12T07:13:07;95875.16;;;19.96;100.00
14067;BME280;7108;42.684;23.350;2023-08-12T07:15:33;95846.63;;;19.86;100.00
14067;BME280;7108;42.684;23.350;2023-08-12T07:17:58;95843.06;;;19.96;100.00
14067;BME280;7108;42.684;23.350;2023-08-12T07:20:25;95873.78;;;20.18;100.00
14067;BME280;7108;42.684;23.350;2023-08-12T07:22:50;95864.38;;;20.22;100.00
14067;BME280;7108;42.684;23.350;2023-08-12T07:25:16;95841.03;;;20.07;100.00
14067;BME280;7108;42.684;23.350;2023-08-12T07:27:42;95839.44;;;20.13;100.00
14067;BME280;7108;42.684;23.350;2023-08-12T07:30:08;95855.72;;;20.31;100.00
14067;BME280;7108;42.684;23.350;2023-08-12T07:32:36;95860.56;;;20.56;100.00
14067;BME280;7108;42.684;23.350;2023-08-12T07:35:02;95850.81;;;20.52;100.00
14067;BME280;7108;42.684;23.350;2023-08-12T07:37:28;95842.19;;;20.53;100.00
14067;BME280;7108;42.684;23.350;2023-08-12T07:39:54;95856.63;;;20.61;100.00
14067;BME280;7108;42.684;23.350;2023-08-12T07:42:20;95854.50;;;20.79;100.00
14067;BME280;7108;42.684;23.350;2023-08-12T07:44:46;95851.72;;;20.82;100.00
14067;BME280;7108;42.684;23.350;2023-08-12T07:47:11;95833.38;;;20.79;100.00
14067;BME280;7108;42.684;23.350;2023-08-12T07:49:37;95823.94;;;20.80;100.00
14067;BME280;7108;42.684;23.350;2023-08-12T07:52:03;95842.50;;;21.03;100.00
14067;BME280;7108;42.684;23.350;2023-08-12T07:54:28;95832.63;;;21.08;100.00
14067;BME280;7108;42.684;23.350;2023-08-12T07:56:54;95827.47;;;21.14;100.00
14067;BME280;7108;42.684;23.350;2023-08-12T07:59:20;95830.13;;;21.21;100.00
14067;BME280;7108;42.684;23.350;2023-08-12T08:01:45;95839.38;;;21.34;100.00
14067;BME280;7108;42.684;23.350;2023-08-12T08:04:11;95819.03;;;21.31;100.00
14067;BME280;7108;42.684;23.350;2023-08-12T08:06:37;95829.00;;;21.48;100.00
14067;BME280;7108;42.684;23.350;2023-08-12T08:09:02;95812.72;;;21.34;100.00
14067;BME280;7108;42.684;23.350;2023-08-12T08:11:30;95840.44;;;21.73;100.00
14067;BME280;7108;42.684;23.350;2023-08-12T08:13:57;95835.31;;;21.75;100.00
14067;BME280;7108;42.684;23.350;2023-08-12T08:16:22;95832.16;;;21.77;100.00
14067;BME280;7108;42.684;23.350;2023-08-12T08:18:48;95812.47;;;21.55;99.44
14067;BME280;7108;42.684;23.350;2023-08-12T08:21:13;95825.66;;;21.64;94.48
14067;BME280;7108;42.684;23.350;2023-08-12T08:23:40;95801.84;;;21.57;97.80
14067;BME280;7108;42.684;23.350;2023-08-12T08:26:06;95838.75;;;21.82;99.24
14067;BME280;7108;42.684;23.350;2023-08-12T08:28:31;95807.56;;;21.70;100.00
14067;BME280;7108;42.684;23.350;2023-08-12T08:30:57;95832.91;;;21.77;96.11
14067;BME280;7108;42.684;23.350;2023-08-12T08:33:22;95825.78;;;21.83;93.65
14067;BME280;7108;42.684;23.350;2023-08-12T08:35:48;95811.59;;;21.88;92.36
14067;BME280;7108;42.684;23.350;2023-08-12T08:38:13;95818.22;;;21.90;93.50
14067;BME280;7108;42.684;23.350;2023-08-12T08:40:38;95810.59;;;22.01;96.99
14067;BME280;7108;42.684;23.350;2023-08-12T08:43:07;95787.88;;;22.01;94.58
14067;BME280;7108;42.684;23.350;2023-08-12T08:45:33;95816.06;;;22.28;92.86
14067;BME280;7108;42.684;23.350;2023-08-12T08:48:02;95814.19;;;22.47;91.35
14067;BME280;7108;42.684;23.350;2023-08-12T08:50:30;95780.25;;;22.35;94.06
14067;BME280;7108;42.684;23.350;2023-08-12T08:52:56;95797.22;;;22.52;90.94
14067;BME280;7108;42.684;23.350;2023-08-12T08:55:22;95762.94;;;22.38;84.17
14067;BME280;7108;42.684;23.350;2023-08-12T08:57:49;95812.56;;;22.69;84.08
14067;BME280;7108;42.684;23.350;2023-08-12T09:00:16;95799.09;;;22.55;81.51
14067;BME280;7108;42.684;23.350;2023-08-12T09:02:44;95777.19;;;22.52;85.15
14067;BME280;7108;42.684;23.350;2023-08-12T09:05:10;95782.13;;;22.60;82.63
14067;BME280;7108;42.684;23.350;2023-08-12T09:07:36;95755.63;;;22.50;88.68
14067;BME280;7108;42.684;23.350;2023-08-12T09:10:03;95780.19;;;22.80;85.36
14067;BME280;7108;42.684;23.350;2023-08-12T09:12:30;95776.59;;;22.83;80.88
14067;BME280;7108;42.684;23.350;2023-08-12T09:14:56;95786.75;;;22.86;81.86
14067;BME280;7108;42.684;23.350;2023-08-12T09:17:22;95774.63;;;22.84;87.13
14067;BME280;7108;42.684;23.350;2023-08-12T09:19:47;95784.94;;;22.99;85.38
14067;BME280;7108;42.684;23.350;2023-08-12T09:22:13;95786.28;;;23.11;88.43
14067;BME280;7108;42.684;23.350;2023-08-12T09:24:38;95773.66;;;23.13;88.56
14067;BME280;7108;42.684;23.350;2023-08-12T09:27:04;95775.91;;;23.18;88.54
14067;BME280;7108;42.684;23.350;2023-08-12T09:29:34;95779.66;;;23.27;80.80
14067;BME280;7108;42.684;23.350;2023-08-12T09:32:13;95752.56;;;23.26;78.17
14067;BME280;7108;42.684;23.350;2023-08-12T09:34:52;95772.97;;;23.44;83.06
14067;BME280;7108;42.684;23.350;2023-08-12T09:37:19;95757.25;;;23.45;77.49
14067;BME280;7108;42.684;23.350;2023-08-12T09:39:47;95755.44;;;23.54;72.09
14067;BME280;7108;42.684;23.350;2023-08-12T09:42:13;95757.44;;;23.54;72.08
14067;BME280;7108;42.684;23.350;2023-08-12T09:44:39;95733.94;;;23.49;73.05
14067;BME280;7108;42.684;23.350;2023-08-12T09:47:08;95753.22;;;23.65;70.58
14067;BME280;7108;42.684;23.350;2023-08-12T09:49:35;95755.47;;;23.70;73.18
14067;BME280;7108;42.684;23.350;2023-08-12T09:52:01;95740.03;;;23.76;68.90
14067;BME280;7108;42.684;23.350;2023-08-12T09:54:28;95750.97;;;23.95;74.58
14067;BME280;7108;42.684;23.350;2023-08-12T09:56:57;95749.19;;;24.05;64.22
14067;BME280;7108;42.684;23.350;2023-08-12T09:59:24;95716.91;;;23.89;61.84
14067;BME280;7108;42.684;23.350;2023-08-12T10:01:53;95735.66;;;24.10;62.59
14067;BME280;7108;42.684;23.350;2023-08-12T10:04:22;95746.81;;;24.35;64.52
14067;BME280;7108;42.684;23.350;2023-08-12T10:06:49;95734.09;;;24.41;65.13
14067;BME280;7108;42.684;23.350;2023-08-12T10:09:15;95704.38;;;24.48;66.80
14067;BME280;7108;42.684;23.350;2023-08-12T10:11:45;95686.34;;;24.60;60.17
14067;BME280;7108;42.684;23.350;2023-08-12T10:14:12;95720.38;;;24.94;60.51
14067;BME280;7108;42.684;23.350;2023-08-12T10:16:38;95697.00;;;24.86;60.25
14067;BME280;7108;42.684;23.350;2023-08-12T10:19:05;95718.03;;;25.09;60.83
14067;BME280;7108;42.684;23.350;2023-08-12T10:21:31;95734.72;;;25.17;57.30
14067;BME280;7108;42.684;23.350;2023-08-12T10:24:00;95706.47;;;25.26;61.50
14067;BME280;7108;42.684;23.350;2023-08-12T10:26:29;95706.47;;;25.38;61.18
14067;BME280;7108;42.684;23.350;2023-08-12T10:28:56;95700.19;;;25.50;56.35
14067;BME280;7108;42.684;23.350;2023-08-12T10:31:21;95689.72;;;25.45;54.89
14067;BME280;7108;42.684;23.350;2023-08-12T10:33:47;95697.34;;;25.54;56.32
14067;BME280;7108;42.684;23.350;2023-08-12T10:36:15;95708.06;;;25.64;55.55
14067;BME280;7108;42.684;23.350;2023-08-12T10:38:41;95704.06;;;25.65;54.51
14067;BME280;7108;42.684;23.350;2023-08-12T10:43:59;95698.69;;;25.74;52.86
14067;BME280;7108;42.684;23.350;2023-08-12T10:46:34;95666.53;;;25.55;50.78
14067;BME280;7108;42.684;23.350;2023-08-12T10:49:05;95692.63;;;25.79;49.95
14067;BME280;7108;42.684;23.350;2023-08-12T10:51:51;95691.38;;;25.80;50.08
14067;BME280;7108;42.684;23.350;2023-08-12T10:54:26;95686.75;;;25.77;51.80
14067;BME280;7108;42.684;23.350;2023-08-12T10:59:48;95683.94;;;26.02;52.04
14067;BME280;7108;42.684;23.350;2023-08-12T11:02:31;95677.56;;;26.05;52.57
14067;BME280;7108;42.684;23.350;2023-08-12T11:05:03;95665.03;;;26.13;53.33
14067;BME280;7108;42.684;23.350;2023-08-12T11:10:05;95647.00;;;26.21;50.08
14067;BME280;7108;42.684;23.350;2023-08-12T11:12:33;95657.78;;;26.28;47.92
14067;BME280;7108;42.684;23.350;2023-08-12T11:15:00;95663.50;;;26.46;49.08
14067;BME280;7108;42.684;23.350;2023-08-12T11:17:45;95664.22;;;26.58;53.48
14067;BME280;7108;42.684;23.350;2023-08-12T11:20:12;95646.75;;;26.61;48.25
14067;BME280;7108;42.684;23.350;2023-08-12T11:22:43;95621.47;;;26.50;50.79
14067;BME280;7108;42.684;23.350;2023-08-12T11:25:11;95605.59;;;26.42;45.63
14067;BME280;7108;42.684;23.350;2023-08-12T11:30:05;95639.13;;;26.74;45.43
14067;BME280;7108;42.684;23.350;2023-08-12T11:32:31;95649.94;;;26.81;45.64
14067;BME280;7108;42.684;23.350;2023-08-12T11:34:57;95628.09;;;26.53;44.62
14067;BME280;7108;42.684;23.350;2023-08-12T11:37:23;95654.44;;;26.33;42.46
14067;BME280;7108;42.684;23.350;2023-08-12T11:39:48;95649.03;;;26.29;43.96
14067;BME280;7108;42.684;23.350;2023-08-12T11:42:16;95653.16;;;26.37;44.92
14067;BME280;7108;42.684;23.350;2023-08-12T11:44:41;95641.63;;;26.39;45.18
14067;BME280;7108;42.684;23.350;2023-08-12T11:47:07;95652.69;;;26.39;45.46
14067;BME280;7108;42.684;23.350;2023-08-12T11:49:33;95651.25;;;26.34;41.50
14067;BME280;7108;42.684;23.350;2023-08-12T11:51:58;95653.63;;;26.23;42.10
14067;BME280;7108;42.684;23.350;2023-08-12T11:54:24;95626.16;;;26.07;41.11
14067;BME280;7108;42.684;23.350;2023-08-12T11:56:50;95617.47;;;25.96;39.97
14067;BME280;7108;42.684;23.350;2023-08-12T11:59:16;95628.16;;;25.94;40.86
14067;BME280;7108;42.684;23.350;2023-08-12T12:01:46;95634.81;;;25.84;41.11
14067;BME280;7108;42.684;23.350;2023-08-12T12:04:14;95621.38;;;25.74;43.40
14067;BME280;7108;42.684;23.350;2023-08-12T12:06:39;95612.38;;;25.95;42.73
14067;BME280;7108;42.684;23.350;2023-08-12T12:09:09;95622.06;;;25.99;42.47
14067;BME280;7108;42.684;23.350;2023-08-12T12:11:38;95628.38;;;26.00;41.20
14067;BME280;7108;42.684;23.350;2023-08-12T12:14:05;95597.63;;;25.77;40.90
14067;BME280;7108;42.684;23.350;2023-08-12T12:16:41;95629.59;;;25.99;43.19
14067;BME280;7108;42.684;23.350;2023-08-12T12:19:22;95629.91;;;26.01;43.78
14067;BME280;7108;42.684;23.350;2023-08-12T12:21:53;95616.03;;;25.92;42.40
14067;BME280;7108;42.684;23.350;2023-08-12T12:24:19;95630.38;;;25.99;44.63
14067;BME280;7108;42.684;23.350;2023-08-12T12:26:46;95634.81;;;25.84;44.78
14067;BME280;7108;42.684;23.350;2023-08-12T12:29:12;95618.72;;;25.83;45.67
14067;BME280;7108;42.684;23.350;2023-08-12T12:31:39;95615.09;;;26.07;46.49
14067;BME280;7108;42.684;23.350;2023-08-12T12:34:05;95612.66;;;26.09;45.75
14067;BME280;7108;42.684;23.350;2023-08-12T12:36:35;95612.59;;;26.00;44.54
14067;BME280;7108;42.684;23.350;2023-08-12T12:39:05;95576.97;;;25.69;45.35
14067;BME280;7108;42.684;23.350;2023-08-12T12:41:30;95625.22;;;25.89;46.68
14067;BME280;7108;42.684;23.350;2023-08-12T12:43:56;95588.78;;;25.69;46.66
14067;BME280;7108;42.684;23.350;2023-08-12T12:46:22;95599.94;;;25.66;47.31
14067;BME280;7108;42.684;23.350;2023-08-12T12:48:47;95614.41;;;25.70;45.64
14067;BME280;7108;42.684;23.350;2023-08-12T12:51:13;95616.50;;;25.66;45.31
14067;BME280;7108;42.684;23.350;2023-08-12T12:53:40;95621.69;;;25.64;45.89
14067;BME280;7108;42.684;23.350;2023-08-12T12:56:05;95606.44;;;25.59;46.40
14067;BME280;7108;42.684;23.350;2023-08-12T12:58:32;95594.31;;;25.69;44.50
14067;BME280;7108;42.684;23.350;2023-08-12T13:00:59;95592.53;;;25.75;45.88
14067;BME280;7108;42.684;23.350;2023-08-12T13:03:24;95594.03;;;25.88;45.83